Time;durP1;ratioP1;P1;durP2;ratioP2;P2;SDS_P1;SDS_P2;PMS_P1;PMS_P2;Temp;Humidity;BMP_temperature;BMP_pressure;BME280_temperature;BME280_humidity;BME280_pressure;Samples;Min_cycle;Max_cycle;Signal;HPM_P1;HPM_P2
2022/06/27 00:02:24;;;;;;;6.53;1.60;;;11.90;99.90;;;;;;4910115;29;20065;-71
2022/06/27 00:04:51;;;;;;;5.70;1.33;;;12.00;99.90;;;;;;4924994;29;20042;-71
2022/06/27 00:07:17;;;;;;;5.03;1.00;;;12.00;99.90;;;;;;4925581;29;20224;-72
2022/06/27 00:09:43;;;;;;;5.93;1.33;;;12.10;99.90;;;;;;4925639;29;20042;-72
2022/06/27 00:12:09;;;;;;;6.03;1.55;;;12.10;99.90;;;;;;4915342;29;20074;-71
2022/06/27 00:14:36;;;;;;;4.82;1.83;;;12.20;99.90;;;;;;4921497;29;20074;-71
2022/06/27 00:17:02;;;;;;;3.05;1.73;;;12.20;99.90;;;;;;4918512;29;20051;-71
2022/06/27 00:19:28;;;;;;;6.20;1.58;;;12.20;99.90;;;;;;4923592;29;20042;-72
2022/06/27 00:21:54;;;;;;;7.78;1.85;;;12.30;99.90;;;;;;4920488;29;20067;-72
2022/06/27 00:24:20;;;;;;;6.22;1.42;;;12.30;99.90;;;;;;4926472;29;20070;-72
2022/06/27 00:26:45;;;;;;;4.03;1.58;;;12.30;99.90;;;;;;4919790;29;20063;-72
2022/06/27 00:29:11;;;;;;;11.23;2.72;;;12.30;99.90;;;;;;4916579;29;20040;-72
2022/06/27 00:31:37;;;;;;;3.70;1.33;;;12.30;99.90;;;;;;4923153;29;20027;-71
2022/06/27 00:34:03;;;;;;;7.25;2.03;;;12.40;99.90;;;;;;4922983;29;20031;-71
2022/06/27 00:36:28;;;;;;;4.22;1.48;;;12.40;99.90;;;;;;4921332;29;20563;-72
2022/06/27 00:38:54;;;;;;;4.93;1.70;;;12.40;99.90;;;;;;4918082;29;20716;-71
2022/06/27 00:41:20;;;;;;;5.53;1.67;;;12.50;99.90;;;;;;4926196;29;20570;-72
2022/06/27 00:43:46;;;;;;;6.72;1.95;;;12.50;99.90;;;;;;4925898;29;20094;-72
2022/06/27 00:46:12;;;;;;;8.85;1.77;;;12.50;99.90;;;;;;4923840;29;20419;-72
2022/06/27 00:48:38;;;;;;;6.30;1.65;;;12.50;99.90;;;;;;4925180;29;20032;-71
2022/06/27 00:51:05;;;;;;;6.50;1.90;;;12.50;99.90;;;;;;4917264;29;20546;-72
2022/06/27 00:53:32;;;;;;;4.03;2.13;;;12.40;99.90;;;;;;4923075;29;20116;-72
2022/06/27 00:55:58;;;;;;;9.02;2.05;;;12.40;99.90;;;;;;4922428;29;20090;-71
2022/06/27 00:58:24;;;;;;;6.65;1.88;;;12.20;99.90;;;;;;4924037;29;20031;-72
2022/06/27 01:00:50;;;;;;;4.50;1.83;;;12.10;99.90;;;;;;4920628;29;20139;-71
2022/06/27 01:03:16;;;;;;;5.88;1.73;;;12.00;99.90;;;;;;4914974;29;20108;-71
2022/06/27 01:05:51;;;;;;;6.85;1.63;;;11.90;99.90;;;;;;4922103;29;20063;-72
2022/06/27 01:08:18;;;;;;;4.75;1.70;;;11.80;99.90;;;;;;4925868;29;20032;-72
2022/06/27 01:10:44;;;;;;;3.60;1.27;;;11.70;99.90;;;;;;4923524;29;20042;-72
2022/06/27 01:13:10;;;;;;;6.45;1.45;;;11.60;99.90;;;;;;4921202;29;20114;-72
2022/06/27 01:15:36;;;;;;;6.13;1.98;;;11.60;99.90;;;;;;4912615;29;20028;-72
2022/06/27 01:18:02;;;;;;;6.72;1.50;;;11.40;99.90;;;;;;4922814;29;20138;-72
2022/06/27 01:20:28;;;;;;;5.45;1.50;;;11.30;99.90;;;;;;4921381;29;20024;-72
2022/06/27 01:22:54;;;;;;;7.25;1.60;;;11.20;99.90;;;;;;4920126;29;20405;-71
2022/06/27 01:25:20;;;;;;;3.65;1.33;;;11.00;99.90;;;;;;4922924;29;20031;-72
2022/06/27 01:27:46;;;;;;;5.25;1.60;;;11.00;99.90;;;;;;4922802;29;20035;-72
2022/06/27 01:30:12;;;;;;;5.93;1.50;;;10.90;99.90;;;;;;4918433;29;20032;-71
2022/06/27 01:32:38;;;;;;;8.43;2.10;;;10.80;99.90;;;;;;4919760;29;20035;-72
2022/06/27 01:35:04;;;;;;;4.25;1.65;;;10.70;99.90;;;;;;4923757;29;20042;-72
2022/06/27 01:37:31;;;;;;;4.63;1.60;;;10.70;99.90;;;;;;4921724;29;20027;-72
2022/06/27 01:40:00;;;;;;;4.78;1.85;;;10.70;99.90;;;;;;4921721;29;20483;-72
2022/06/27 01:42:26;;;;;;;4.03;1.33;;;10.70;99.90;;;;;;4918939;29;20107;-72
2022/06/27 01:44:52;;;;;;;6.47;1.73;;;10.70;99.90;;;;;;4918901;29;20132;-71
2022/06/27 01:47:17;;;;;;;5.60;1.63;;;10.70;99.90;;;;;;4921338;29;20471;-72
2022/06/27 01:49:43;;;;;;;5.10;1.85;;;10.60;99.90;;;;;;4912193;29;20024;-71
2022/06/27 01:52:13;;;;;;;4.43;1.60;;;10.60;99.90;;;;;;4923827;29;20452;-70
2022/06/27 01:54:39;;;;;;;10.13;1.60;;;10.50;99.90;;;;;;4923046;29;20036;-71
2022/06/27 01:57:07;;;;;;;6.72;1.85;;;10.50;99.90;;;;;;4922317;29;20114;-73
2022/06/27 01:59:33;;;;;;;6.07;2.10;;;10.40;99.90;;;;;;4924897;29;20039;-71
2022/06/27 02:01:59;;;;;;;4.93;2.10;;;10.30;99.90;;;;;;4922396;29;20062;-71
2022/06/27 02:04:27;;;;;;;4.15;1.75;;;10.20;99.90;;;;;;4913885;29;20032;-71
2022/06/27 02:06:52;;;;;;;4.10;2.00;;;10.10;99.90;;;;;;4918162;29;20031;-71
2022/06/27 02:09:18;;;;;;;8.13;2.92;;;10.10;99.90;;;;;;4922468;29;20083;-71
2022/06/27 02:11:45;;;;;;;6.45;2.10;;;10.10;99.90;;;;;;4922360;29;20030;-71
2022/06/27 02:14:11;;;;;;;3.63;1.90;;;10.10;99.90;;;;;;4915470;29;20039;-71
2022/06/27 02:16:38;;;;;;;5.47;1.65;;;10.10;99.90;;;;;;4919557;29;20444;-71
2022/06/27 02:19:04;;;;;;;4.88;1.80;;;10.10;99.90;;;;;;4920177;29;20507;-71
2022/06/27 02:21:30;;;;;;;5.18;1.92;;;10.00;99.90;;;;;;4922370;29;20036;-71
2022/06/27 02:23:56;;;;;;;4.65;2.22;;;10.00;99.90;;;;;;4918217;29;20123;-71
2022/06/27 02:26:28;;;;;;;6.28;1.98;;;9.90;99.90;;;;;;4922559;29;20027;-71
2022/06/27 02:28:56;;;;;;;6.97;2.10;;;9.90;99.90;;;;;;4919147;29;20041;-71
2022/06/27 02:31:22;;;;;;;6.45;1.95;;;9.90;99.90;;;;;;4918839;29;20513;-71
2022/06/27 02:33:49;;;;;;;5.65;2.00;;;9.80;99.90;;;;;;4915186;29;20646;-71
2022/06/27 02:36:32;;;;;;;6.25;2.70;;;9.80;99.90;;;;;;4918597;29;20055;-71
2022/06/27 02:39:00;;;;;;;4.72;2.00;;;9.80;99.90;;;;;;4918746;29;20044;-71
2022/06/27 02:41:28;;;;;;;7.28;2.50;;;9.80;99.90;;;;;;4921531;29;20499;-71
2022/06/27 02:44:07;;;;;;;5.82;2.85;;;9.70;99.90;;;;;;4920875;29;20070;-71
2022/06/27 02:46:34;;;;;;;10.63;2.63;;;9.70;99.90;;;;;;4915729;29;20055;-71
2022/06/27 02:49:00;;;;;;;8.48;2.65;;;9.70;99.90;;;;;;4919313;29;20496;-71
2022/06/27 02:51:33;;;;;;;6.40;2.30;;;9.60;99.90;;;;;;4918770;29;20079;-72
2022/06/27 02:54:15;;;;;;;4.57;2.20;;;9.60;99.90;;;;;;4912862;29;20036;-71
2022/06/27 02:56:57;;;;;;;5.60;2.60;;;9.60;99.90;;;;;;4924657;29;20051;-73
2022/06/27 02:59:26;;;;;;;4.38;2.45;;;9.60;99.90;;;;;;4916111;29;20086;-72
2022/06/27 03:01:55;;;;;;;8.07;2.83;;;9.60;99.90;;;;;;4918185;29;20107;-73
2022/06/27 03:04:20;;;;;;;4.55;2.45;;;9.60;99.90;;;;;;4918611;29;20042;-73
2022/06/27 03:06:49;;;;;;;6.03;2.67;;;9.60;99.90;;;;;;4923781;29;20029;-73
2022/06/27 03:09:16;;;;;;;8.43;2.45;;;9.60;99.90;;;;;;4916763;29;20047;-71
2022/06/27 03:11:41;;;;;;;5.60;2.70;;;9.60;99.90;;;;;;4919629;29;20028;-73
2022/06/27 03:14:07;;;;;;;4.97;3.20;;;9.60;99.90;;;;;;4919566;29;20066;-72
2022/06/27 03:16:33;;;;;;;9.45;2.60;;;9.60;99.90;;;;;;4919414;29;20024;-71
2022/06/27 03:18:58;;;;;;;8.57;2.92;;;9.70;99.90;;;;;;4914046;29;20427;-71
2022/06/27 03:21:24;;;;;;;9.15;3.15;;;9.80;99.90;;;;;;4922695;29;20039;-72
2022/06/27 03:23:50;;;;;;;5.57;3.00;;;9.80;99.90;;;;;;4918717;29;20486;-73
2022/06/27 03:26:17;;;;;;;7.40;2.78;;;10.00;99.90;;;;;;4914760;29;20614;-73
2022/06/27 03:28:43;;;;;;;7.00;3.10;;;10.10;99.90;;;;;;4922766;29;20043;-72
2022/06/27 03:31:09;;;;;;;8.70;3.25;;;10.10;99.90;;;;;;4919782;29;20431;-73
2022/06/27 03:33:34;;;;;;;8.55;2.78;;;10.20;99.90;;;;;;4919043;29;20032;-73
2022/06/27 03:36:01;;;;;;;7.90;2.75;;;10.20;99.90;;;;;;4916190;29;20078;-73
2022/06/27 03:38:26;;;;;;;8.07;2.20;;;10.20;99.90;;;;;;4924331;29;20047;-73
2022/06/27 03:40:52;;;;;;;6.90;2.55;;;10.20;99.90;;;;;;4924378;29;20036;-73
2022/06/27 03:43:18;;;;;;;5.50;2.05;;;10.20;99.90;;;;;;4925334;29;20054;-73
2022/06/27 03:45:43;;;;;;;7.40;2.58;;;10.10;99.90;;;;;;4924081;29;20404;-73
2022/06/27 03:48:09;;;;;;;8.07;2.22;;;10.00;99.90;;;;;;4921757;29;20078;-73
2022/06/27 03:50:35;;;;;;;3.08;2.42;;;9.90;99.90;;;;;;4921520;29;20099;-73
2022/06/27 03:53:02;;;;;;;5.25;2.35;;;9.90;99.90;;;;;;4921933;29;20031;-73
2022/06/27 03:55:27;;;;;;;6.18;2.08;;;9.80;99.90;;;;;;4919804;29;20016;-73
2022/06/27 03:57:56;;;;;;;10.77;2.30;;;9.80;99.90;;;;;;4924610;29;20082;-73
2022/06/27 04:00:24;;;;;;;7.43;2.47;;;9.70;99.90;;;;;;4922235;29;20504;-73
2022/06/27 04:02:51;;;;;;;7.90;2.30;;;9.70;99.90;;;;;;4920568;29;20054;-73
2022/06/27 04:05:17;;;;;;;5.85;1.70;;;9.70;99.90;;;;;;4921432;29;20036;-73
2022/06/27 04:07:43;;;;;;;9.80;2.20;;;9.70;99.90;;;;;;4923224;29;20035;-73
2022/06/27 04:10:11;;;;;;;7.10;2.03;;;9.70;99.90;;;;;;4920252;29;20504;-73
2022/06/27 04:12:38;;;;;;;5.50;2.53;;;9.60;99.90;;;;;;4923705;29;20040;-73
2022/06/27 04:15:05;;;;;;;7.78;2.42;;;9.60;99.90;;;;;;4924372;29;20403;-73
2022/06/27 04:17:31;;;;;;;8.18;2.13;;;9.70;99.90;;;;;;4921588;29;20054;-73
2022/06/27 04:19:57;;;;;;;9.70;1.98;;;9.70;99.90;;;;;;4925022;29;20399;-73
2022/06/27 04:22:23;;;;;;;7.40;2.58;;;9.70;99.90;;;;;;4924018;29;20046;-73
2022/06/27 04:24:49;;;;;;;5.85;2.00;;;9.70;99.90;;;;;;4925703;29;20091;-73
2022/06/27 04:27:17;;;;;;;4.07;2.15;;;9.70;99.90;;;;;;4911553;29;20035;-73
2022/06/27 04:29:43;;;;;;;3.95;2.22;;;9.70;99.90;;;;;;4925242;29;20554;-73
2022/06/27 04:32:10;;;;;;;4.68;1.92;;;9.80;99.90;;;;;;4921563;29;20027;-73
2022/06/27 04:34:37;;;;;;;5.45;2.63;;;9.80;99.90;;;;;;4921284;29;20039;-73
2022/06/27 04:37:03;;;;;;;4.43;1.80;;;9.80;99.90;;;;;;4920264;29;20028;-73
2022/06/27 04:39:32;;;;;;;4.18;1.92;;;9.80;99.90;;;;;;4924214;29;20035;-73
2022/06/27 04:41:58;;;;;;;6.13;2.25;;;9.80;99.90;;;;;;4926994;29;20039;-73
2022/06/27 04:44:23;;;;;;;4.38;2.28;;;9.80;99.90;;;;;;4928917;29;20031;-73
2022/06/27 04:46:50;;;;;;;5.22;2.08;;;9.80;99.90;;;;;;4924874;29;20551;-73
2022/06/27 04:49:17;;;;;;;4.20;2.22;;;9.90;99.90;;;;;;4917519;29;20067;-73
2022/06/27 04:51:43;;;;;;;4.47;1.75;;;9.90;99.90;;;;;;4920756;29;20020;-73
2022/06/27 04:54:10;;;;;;;5.05;1.92;;;9.90;99.90;;;;;;4923116;29;20046;-73
2022/06/27 04:56:39;;;;;;;3.22;2.42;;;9.90;99.90;;;;;;4924931;29;20134;-73
2022/06/27 04:59:05;;;;;;;2.63;1.83;;;9.90;99.90;;;;;;4922928;29;20036;-73
2022/06/27 05:01:31;;;;;;;1.95;1.70;;;10.00;99.90;;;;;;4917283;29;20031;-73
2022/06/27 05:03:56;;;;;;;4.45;2.30;;;10.00;99.90;;;;;;4918265;29;20062;-73
2022/06/27 05:06:22;;;;;;;5.35;2.30;;;10.00;99.90;;;;;;4920900;29;20036;-73
2022/06/27 05:08:48;;;;;;;4.90;2.40;;;10.10;99.90;;;;;;4918022;29;20388;-73
2022/06/27 05:11:13;;;;;;;10.40;2.83;;;10.10;99.90;;;;;;4925592;29;20034;-73
2022/06/27 05:13:39;;;;;;;7.72;3.13;;;10.30;99.90;;;;;;4920549;29;20776;-73
2022/06/27 05:16:05;;;;;;;8.93;2.85;;;10.40;99.90;;;;;;4925108;29;20042;-73
2022/06/27 05:18:31;;;;;;;7.65;2.63;;;10.50;99.90;;;;;;4921001;29;20120;-73
2022/06/27 05:20:57;;;;;;;5.15;2.80;;;10.50;99.90;;;;;;4922687;29;20038;-73
2022/06/27 05:23:23;;;;;;;5.95;2.70;;;10.60;99.90;;;;;;4923384;29;20540;-73
2022/06/27 05:25:49;;;;;;;8.57;2.88;;;10.70;99.90;;;;;;4924090;29;20554;-73
2022/06/27 05:28:15;;;;;;;7.57;2.58;;;10.70;99.90;;;;;;4920271;29;20063;-73
2022/06/27 05:30:40;;;;;;;7.60;2.05;;;10.80;99.90;;;;;;4922742;29;20036;-73
2022/06/27 05:33:07;;;;;;;8.52;2.63;;;10.90;99.90;;;;;;4923894;29;20065;-73
2022/06/27 05:35:32;;;;;;;6.45;2.63;;;11.00;99.90;;;;;;4910397;29;20043;-73
2022/06/27 05:37:59;;;;;;;3.28;2.50;;;11.10;99.90;;;;;;4921907;29;20043;-73
2022/06/27 05:40:25;;;;;;;12.05;2.40;;;11.30;99.90;;;;;;4919443;29;20028;-73
2022/06/27 05:42:53;;;;;;;5.32;2.47;;;11.40;99.90;;;;;;4922446;29;20126;-73
2022/06/27 05:45:19;;;;;;;10.07;2.08;;;11.50;99.90;;;;;;4915379;29;20067;-73
2022/06/27 05:47:46;;;;;;;8.82;2.40;;;11.70;99.90;;;;;;4923917;29;20468;-73
2022/06/27 05:50:12;;;;;;;5.40;2.05;;;11.70;99.90;;;;;;4916592;29;20031;-73
2022/06/27 05:52:39;;;;;;;8.32;2.30;;;11.80;99.90;;;;;;4911711;29;20027;-73
2022/06/27 05:55:08;;;;;;;4.72;2.03;;;11.90;99.90;;;;;;4921677;29;20067;-73
2022/06/27 05:57:35;;;;;;;9.07;2.47;;;11.90;99.90;;;;;;4921484;29;20038;-73
2022/06/27 06:00:02;;;;;;;4.68;1.95;;;11.80;99.90;;;;;;4914162;29;20040;-73
2022/06/27 06:02:27;;;;;;;9.80;2.30;;;11.80;99.90;;;;;;4914302;29;20059;-75
2022/06/27 06:04:53;;;;;;;4.45;2.20;;;11.80;99.90;;;;;;4921130;29;20067;-73
2022/06/27 06:07:22;;;;;;;5.70;2.20;;;11.80;99.90;;;;;;4924483;29;20031;-73
2022/06/27 06:09:49;;;;;;;15.55;4.68;;;11.70;99.90;;;;;;4921049;29;20609;-74
2022/06/27 06:12:16;;;;;;;7.57;2.63;;;11.70;99.90;;;;;;4920640;29;20083;-73
2022/06/27 06:14:43;;;;;;;18.33;7.38;;;11.80;99.90;;;;;;4919403;29;20028;-73
2022/06/27 06:17:09;;;;;;;5.55;2.20;;;11.80;99.90;;;;;;4918436;29;20094;-73
2022/06/27 06:19:35;;;;;;;6.15;2.00;;;11.80;99.90;;;;;;4917475;29;20054;-73
2022/06/27 06:22:01;;;;;;;5.03;1.38;;;11.90;99.90;;;;;;4921858;29;20035;-74
2022/06/27 06:24:27;;;;;;;6.60;2.03;;;12.10;99.90;;;;;;4923978;29;20034;-73
2022/06/27 06:26:53;;;;;;;7.60;1.85;;;12.30;99.90;;;;;;4921578;29;20039;-73
2022/06/27 06:29:21;;;;;;;4.97;1.65;;;12.50;99.90;;;;;;4922960;29;20042;-73
2022/06/27 06:31:48;;;;;;;3.08;1.55;;;12.80;99.90;;;;;;4920835;29;20110;-74
2022/06/27 06:34:16;;;;;;;2.83;1.08;;;13.00;99.90;;;;;;4917680;29;20195;-73
2022/06/27 06:36:44;;;;;;;2.85;1.77;;;13.20;99.90;;;;;;4920360;29;20034;-73
2022/06/27 06:39:11;;;;;;;5.70;1.45;;;13.30;99.90;;;;;;4918998;29;20028;-73
2022/06/27 06:41:38;;;;;;;6.55;1.60;;;13.60;99.90;;;;;;4921106;29;20042;-73
2022/06/27 06:44:05;;;;;;;2.83;1.33;;;13.90;99.90;;;;;;4919979;29;20388;-73
2022/06/27 06:46:32;;;;;;;4.68;1.25;;;14.20;99.90;;;;;;4925113;29;20036;-73
2022/06/27 06:49:06;;;;;;;5.13;1.42;;;14.60;99.90;;;;;;4920547;29;20051;-73
2022/06/27 06:51:37;;;;;;;7.03;1.52;;;14.90;99.90;;;;;;4915421;29;20055;-73
2022/06/27 06:54:04;;;;;;;5.93;1.27;;;15.50;99.90;;;;;;4920071;29;20484;-73
2022/06/27 06:56:30;;;;;;;4.60;1.08;;;16.00;99.90;;;;;;4914880;29;20047;-73
2022/06/27 06:59:00;;;;;;;9.38;1.48;;;16.50;99.90;;;;;;4915585;29;20032;-72
2022/06/27 07:01:27;;;;;;;3.45;0.82;;;16.80;99.90;;;;;;4918645;29;20466;-72
2022/06/27 07:03:53;;;;;;;7.78;1.48;;;17.00;99.90;;;;;;4911107;29;20043;-73
2022/06/27 07:06:24;;;;;;;8.10;1.23;;;17.30;99.90;;;;;;4915612;29;20488;-73
2022/06/27 07:08:53;;;;;;;7.03;1.30;;;17.60;99.90;;;;;;4916977;29;20093;-73
2022/06/27 07:11:21;;;;;;;6.20;1.30;;;17.80;99.90;;;;;;4915612;29;20499;-72
2022/06/27 07:13:51;;;;;;;7.63;0.73;;;18.00;99.90;;;;;;4926766;29;20098;-73
2022/06/27 07:16:18;;;;;;;8.95;1.17;;;18.20;99.90;;;;;;4922451;29;20495;-72
2022/06/27 07:18:47;;;;;;;7.43;0.98;;;18.30;99.90;;;;;;4920461;29;20063;-72
2022/06/27 07:21:16;;;;;;;4.13;1.33;;;18.50;99.90;;;;;;4914731;29;20427;-74
2022/06/27 07:23:42;;;;;;;9.30;1.35;;;18.50;99.90;;;;;;4912496;29;20107;-72
2022/06/27 07:26:09;;;;;;;7.65;1.00;;;18.30;99.90;;;;;;4925952;29;20046;-73
2022/06/27 07:28:35;;;;;;;6.97;1.00;;;18.20;99.90;;;;;;4925227;29;20110;-72
2022/06/27 07:31:01;;;;;;;8.10;0.98;;;18.20;99.90;;;;;;4919466;29;20468;-71
2022/06/27 07:33:28;;;;;;;8.32;1.33;;;18.70;99.90;;;;;;4917067;29;20191;-72
2022/06/27 07:35:54;;;;;;;11.02;1.70;;;20.80;99.90;;;;;;4919794;29;20455;-72
2022/06/27 07:38:22;;;;;;;8.02;0.85;;;24.40;95.90;;;;;;4919599;29;20044;-72
2022/06/27 07:40:48;;;;;;;6.95;1.30;;;25.10;90.90;;;;;;4923339;29;20036;-72
2022/06/27 07:43:15;;;;;;;8.32;1.25;;;25.10;87.60;;;;;;4921707;29;20051;-72
2022/06/27 07:45:41;;;;;;;6.28;0.95;;;25.60;82.30;;;;;;4918460;29;20086;-72
2022/06/27 07:48:07;;;;;;;4.97;0.88;;;25.50;73.20;;;;;;4921624;29;20034;-72
2022/06/27 07:50:36;;;;;;;7.95;1.40;;;26.40;68.70;;;;;;4912140;29;20549;-72
2022/06/27 07:53:12;;;;;;;4.57;0.73;;;25.10;70.40;;;;;;4919716;29;20542;-72
2022/06/27 07:55:42;;;;;;;8.63;1.40;;;27.30;63.80;;;;;;4922517;29;20035;-72
2022/06/27 07:58:14;;;;;;;3.80;0.80;;;30.40;53.10;;;;;;4921158;29;20035;-73
2022/06/27 08:00:41;;;;;;;4.72;0.63;;;32.70;45.90;;;;;;4923852;29;20846;-73
2022/06/27 08:05:53;;;;;;;5.72;1.05;;;36.50;36.60;;;;;;4915485;29;20068;-72
2022/06/27 08:08:23;;;;;;;7.13;1.00;;;32.00;34.60;;;;;;4918569;29;20040;-71
2022/06/27 08:10:49;;;;;;;3.50;0.85;;;30.50;40.80;;;;;;4915447;29;20050;-72
2022/06/27 08:13:15;;;;;;;4.88;0.90;;;28.80;41.80;;;;;;4916745;29;20067;-72
2022/06/27 08:15:41;;;;;;;6.03;1.25;;;27.20;46.00;;;;;;4927145;29;20159;-71
2022/06/27 08:18:08;;;;;;;5.43;0.52;;;25.30;50.90;;;;;;4915635;29;20048;-71
2022/06/27 08:20:35;;;;;;;7.18;1.50;;;24.00;57.80;;;;;;4910365;29;20055;-72
2022/06/27 08:23:03;;;;;;;5.93;1.35;;;24.70;58.90;;;;;;4915111;29;20043;-71
2022/06/27 08:25:29;;;;;;;4.80;0.68;;;27.50;56.70;;;;;;4915692;29;20051;-72
2022/06/27 08:27:55;;;;;;;4.22;0.82;;;30.40;46.90;;;;;;4915148;29;20548;-72
2022/06/27 08:30:25;;;;;;;4.75;0.77;;;33.50;43.10;;;;;;4914882;29;20793;-73
2022/06/27 08:32:55;;;;;;;6.22;0.95;;;35.10;42.90;;;;;;4917672;29;20031;-74
2022/06/27 08:35:24;;;;;;;4.47;0.68;;;35.40;38.20;;;;;;4914078;29;20078;-71
2022/06/27 08:37:54;;;;;;;3.83;0.70;;;33.50;36.20;;;;;;4917411;29;20032;-72
2022/06/27 08:40:21;;;;;;;4.82;0.77;;;34.60;38.30;;;;;;4917423;29;20028;-72
2022/06/27 08:42:47;;;;;;;6.05;0.80;;;31.00;37.90;;;;;;4922154;29;20047;-72
2022/06/27 08:45:17;;;;;;;5.47;0.82;;;31.10;39.80;;;;;;4930069;29;20274;-71
2022/06/27 08:47:46;;;;;;;3.17;0.88;;;28.10;42.40;;;;;;4943090;29;20027;-71
2022/06/27 08:50:14;;;;;;;5.72;1.20;;;26.10;45.30;;;;;;4936211;29;20111;-71
2022/06/27 08:52:40;;;;;;;7.80;0.90;;;25.70;50.50;;;;;;4917203;29;20512;-71
2022/06/27 08:55:09;;;;;;;4.80;1.20;;;25.60;56.30;;;;;;4904674;29;20044;-72
2022/06/27 08:57:36;;;;;;;5.80;0.82;;;25.30;56.00;;;;;;4919554;29;20302;-70
2022/06/27 09:00:06;;;;;;;4.13;0.80;;;27.10;49.80;;;;;;4916938;29;20035;-73
2022/06/27 09:02:36;;;;;;;6.30;1.02;;;28.90;48.60;;;;;;4910531;29;20123;-72
2022/06/27 09:05:03;;;;;;;3.28;1.30;;;29.70;46.90;;;;;;4907326;29;20492;-72
2022/06/27 09:07:50;;;;;;;5.43;0.95;;;28.00;44.30;;;;;;4909676;29;20035;-72
2022/06/27 09:10:27;;;;;;;4.97;0.88;;;26.90;48.50;;;;;;4916097;29;20075;-71
2022/06/27 09:13:15;;;;;;;6.38;1.02;;;27.00;52.10;;;;;;4906642;29;20095;-72
2022/06/27 09:15:58;;;;;;;7.25;1.50;;;27.70;49.80;;;;;;4912772;29;20036;-72
2022/06/27 09:18:26;;;;;;;5.70;0.95;;;27.70;49.30;;;;;;4909672;29;20268;-73
2022/06/27 09:20:55;;;;;;;10.88;1.63;;;27.80;52.90;;;;;;4915185;29;20036;-72
2022/06/27 09:23:26;;;;;;;5.20;1.00;;;27.70;48.70;;;;;;4908471;29;20382;-72
2022/06/27 09:25:58;;;;;;;4.13;1.10;;;27.30;51.80;;;;;;4909334;29;20575;-72
2022/06/27 09:28:39;;;;;;;7.47;1.40;;;27.60;49.60;;;;;;4916890;29;20485;-72
2022/06/27 09:31:10;;;;;;;3.30;0.45;;;27.40;46.40;;;;;;4915985;29;20350;-72
2022/06/27 09:33:38;;;;;;;4.93;0.88;;;28.80;49.60;;;;;;4913950;29;20031;-73
2022/06/27 09:36:28;;;;;;;5.00;0.80;;;30.40;42.50;;;;;;4902408;29;20163;-73
2022/06/27 09:38:54;;;;;;;4.13;0.60;;;32.30;42.20;;;;;;4912450;29;20591;-73
2022/06/27 09:41:21;;;;;;;4.45;0.80;;;32.70;42.00;;;;;;4905305;29;20031;-73
2022/06/27 09:43:49;;;;;;;16.83;2.22;;;33.30;43.10;;;;;;4903741;29;20054;-73
2022/06/27 09:46:18;;;;;;;6.00;1.25;;;33.10;37.70;;;;;;4906805;29;20031;-74
2022/06/27 09:48:45;;;;;;;8.23;1.08;;;33.50;42.60;;;;;;4905027;29;20036;-72
2022/06/27 09:51:17;;;;;;;7.10;1.05;;;31.90;36.70;;;;;;4902736;29;20039;-73
2022/06/27 09:53:48;;;;;;;6.25;1.20;;;30.10;43.10;;;;;;4912090;29;20423;-72
2022/06/27 09:56:15;;;;;;;6.35;0.68;;;27.40;44.90;;;;;;4912430;29;20381;-72
2022/06/27 09:58:42;;;;;;;6.43;1.52;;;26.60;50.30;;;;;;4908226;29;20032;-74
2022/06/27 10:01:10;;;;;;;5.68;1.00;;;27.00;52.50;;;;;;4900573;29;20474;-72
2022/06/27 10:03:36;;;;;;;6.53;1.30;;;28.20;49.00;;;;;;4900271;29;20055;-74
2022/06/27 10:06:03;;;;;;;4.90;1.05;;;29.10;50.60;;;;;;4900680;29;20263;-73
2022/06/27 10:08:32;;;;;;;4.55;1.02;;;30.80;46.10;;;;;;4905962;29;20490;-73
2022/06/27 10:11:08;;;;;;;6.38;1.35;;;31.20;42.10;;;;;;4902019;29;21431;-71
2022/06/27 10:13:35;;;;;;;5.60;1.02;;;30.00;38.20;;;;;;4906023;29;20117;-72
2022/06/27 10:16:10;;;;;;;4.50;0.82;;;28.00;47.10;;;;;;4914332;29;20035;-72
2022/06/27 10:18:57;;;;;;;5.07;0.85;;;28.40;44.70;;;;;;4905640;29;20143;-72
2022/06/27 10:21:31;;;;;;;4.10;0.70;;;28.60;43.70;;;;;;4916513;29;20028;-74
2022/06/27 10:24:19;;;;;;;2.30;0.47;;;29.20;42.40;;;;;;4911273;29;20313;-72
2022/06/27 10:26:46;;;;;;;4.88;1.25;;;30.00;43.60;;;;;;4914129;29;20023;-72
2022/06/27 10:29:30;;;;;;;6.38;0.93;;;29.80;42.10;;;;;;4915012;29;20107;-71
2022/06/27 10:32:02;;;;;;;6.15;1.33;;;27.90;43.70;;;;;;4904174;29;20384;-72
2022/06/27 10:34:40;;;;;;;5.57;1.00;;;26.50;53.60;;;;;;4914825;29;20462;-73
2022/06/27 10:37:21;;;;;;;6.80;1.00;;;25.60;61.60;;;;;;4908018;29;20111;-74
2022/06/27 10:40:21;;;;;;;6.15;0.98;;;26.00;63.70;;;;;;4907781;29;20039;-73
2022/06/27 10:42:50;;;;;;;5.50;0.82;;;27.00;54.70;;;;;;4916496;29;20071;-72
2022/06/27 10:45:28;;;;;;;4.88;1.10;;;28.00;50.70;;;;;;4916350;29;20062;-73
2022/06/27 10:47:58;;;;;;;3.63;0.80;;;27.90;53.30;;;;;;4907449;29;20038;-72
2022/06/27 10:50:28;;;;;;;5.50;0.97;;;28.70;52.30;;;;;;4914714;29;20038;-73
2022/06/27 10:53:19;;;;;;;5.77;1.03;;;28.80;52.80;;;;;;4915936;29;20044;-72
2022/06/27 10:55:45;;;;;;;7.53;0.73;;;29.10;48.00;;;;;;4909716;29;20031;-74
2022/06/27 10:58:27;;;;;;;4.85;0.93;;;28.10;49.30;;;;;;4918664;29;20036;-73
2022/06/27 11:01:15;;;;;;;5.47;0.90;;;27.90;54.50;;;;;;4900407;29;20522;-74
2022/06/27 11:03:41;;;;;;;5.53;0.63;;;27.60;51.00;;;;;;4926420;29;20042;-73
2022/06/27 11:06:08;;;;;;;4.93;1.05;;;27.20;52.20;;;;;;4930727;29;20023;-71
2022/06/27 11:08:36;;;;;;;4.63;0.73;;;26.70;55.50;;;;;;4926376;29;20043;-73
2022/06/27 11:11:02;;;;;;;3.72;0.63;;;27.60;58.30;;;;;;4922967;29;20115;-73
2022/06/27 11:13:47;;;;;;;4.97;0.60;;;27.90;56.00;;;;;;4926991;29;20083;-74
2022/06/27 11:16:27;;;;;;;5.28;1.08;;;28.10;56.70;;;;;;4922225;29;20056;-74
2022/06/27 11:20:04;;;;;;;7.50;0.90;;;27.70;52.80;;;;;;4921889;29;20163;-70
2022/06/27 11:21:53;;;;;;;5.68;0.60;;;27.00;57.80;;;;;;4916718;29;20087;-72
2022/06/27 11:24:19;;;;;;;9.40;0.80;;;26.60;57.10;;;;;;4918177;29;20600;-71
2022/06/27 11:26:49;;;;;;;5.60;0.98;;;25.60;59.10;;;;;;4921777;29;20036;-71
2022/06/27 11:32:07;;;;;;;4.60;0.43;;;24.20;60.50;;;;;;4918586;29;20031;-70
2022/06/27 11:34:36;;;;;;;3.22;0.50;;;24.20;69.50;;;;;;4922779;29;20086;-72
2022/06/27 11:37:08;;;;;;;1.83;0.30;;;24.40;83.20;;;;;;4924259;29;20024;-71
2022/06/27 11:39:34;;;;;;;5.00;1.20;;;25.20;66.50;;;;;;4925350;29;20039;-72
2022/06/27 11:42:03;;;;;;;4.28;0.70;;;25.70;81.00;;;;;;4923712;29;20036;-71
2022/06/27 11:44:29;;;;;;;3.33;0.88;;;25.60;69.10;;;;;;4922027;29;20036;-71
2022/06/27 11:47:08;;;;;;;1.98;0.20;;;25.60;65.80;;;;;;4917777;29;20065;-69
2022/06/27 11:49:40;;;;;;;2.63;0.40;;;25.20;68.40;;;;;;4909772;29;20031;-71
2022/06/27 11:52:13;;;;;;;1.27;0.17;;;24.20;69.70;;;;;;4912486;29;20038;-72
2022/06/27 11:54:48;;;;;;;1.08;0.35;;;23.70;76.60;;;;;;4911954;29;20119;-70
2022/06/27 11:57:34;;;;;;;1.23;0.40;;;23.50;70.60;;;;;;4917642;29;20072;-69
2022/06/27 12:00:03;;;;;;;4.00;0.30;;;22.70;72.70;;;;;;4913054;29;20123;-76
2022/06/27 12:02:34;;;;;;;4.18;0.28;;;22.00;89.30;;;;;;4913902;29;20051;-75
2022/06/27 12:05:17;;;;;;;3.63;0.32;;;21.60;93.20;;;;;;4921111;29;20040;-73
2022/06/27 12:08:09;;;;;;;1.77;0.30;;;21.40;93.40;;;;;;4918782;29;20098;-75
2022/06/27 12:13:38;;;;;;;3.85;0.80;;;22.10;99.90;;;;;;4925689;29;20102;-73
2022/06/27 12:16:07;;;;;;;4.85;0.55;;;22.20;93.30;;;;;;4926585;29;20027;-72
2022/06/27 12:18:44;;;;;;;3.65;0.40;;;22.60;91.40;;;;;;4926089;29;20139;-73
2022/06/27 12:21:10;;;;;;;3.10;0.25;;;23.20;85.80;;;;;;4915916;29;20019;-76
2022/06/27 12:23:36;;;;;;;3.67;0.50;;;23.00;87.20;;;;;;4923235;29;20503;-74
2022/06/27 12:26:02;;;;;;;4.93;0.82;;;22.60;81.50;;;;;;4923558;29;20399;-75
2022/06/27 12:28:28;;;;;;;3.45;0.50;;;22.60;81.10;;;;;;4923973;29;20571;-77
2022/06/27 12:30:53;;;;;;;1.90;0.20;;;22.40;79.10;;;;;;4923468;29;20038;-78
2022/06/27 12:33:19;;;;;;;3.35;0.63;;;22.70;85.40;;;;;;4925960;29;20413;-75
2022/06/27 12:35:45;;;;;;;5.45;0.45;;;22.80;83.10;;;;;;4904762;29;20027;-77
2022/06/27 12:38:11;;;;;;;2.45;0.52;;;22.40;82.80;;;;;;4924943;29;20047;-75
2022/06/27 12:40:37;;;;;;;4.75;1.00;;;22.20;81.50;;;;;;4592912;28;10000490;-74
2022/06/27 12:43:04;;;;;;;4.20;0.40;;;22.20;85.70;;;;;;4925782;29;20031;-76
2022/06/27 12:45:34;;;;;;;5.43;1.17;;;22.00;86.00;;;;;;4916455;29;20059;-75
2022/06/27 12:48:04;;;;;;;2.15;0.57;;;22.10;86.70;;;;;;4918084;29;20500;-75
2022/06/27 12:50:29;;;;;;;3.08;0.50;;;22.20;78.20;;;;;;4921578;29;20048;-75
2022/06/27 12:52:55;;;;;;;4.47;0.60;;;22.20;85.10;;;;;;4924451;29;20447;-72
2022/06/27 12:55:20;;;;;;;1.75;0.20;;;21.60;91.00;;;;;;4920234;29;20562;-73
2022/06/27 12:57:46;;;;;;;2.15;0.30;;;20.60;99.90;;;;;;4913146;29;20027;-79
2022/06/27 13:00:13;;;;;;;5.10;0.40;;;20.10;99.90;;;;;;4911898;29;20113;-75
2022/06/27 13:02:39;;;;;;;1.42;0.20;;;20.20;99.90;;;;;;4914441;29;20035;-74
2022/06/27 13:05:05;;;;;;;2.33;0.20;;;20.30;99.90;;;;;;4923981;29;20047;-73